Terminal Aerodrome Forecast
Issued by NWS Cleveland, OH

Home | Current Version | Previous Version | Graphics & Text | Print | Product List | Glossary On
Versions: 1 2 3 4 5 6 7 8 9 10 11 12 13 14 15 16 17 18 19 20 21 22
987
FTUS41 KCLE 281138
TAFYNG
TAF
KYNG 281138Z 2812/2912 05008KT P6SM VCSH SCT040 OVC100
     FM281400 06010KT P6SM -SHRA OVC028
     FM281600 07010KT P6SM OVC018
     FM281900 05008KT P6SM OVC008
     FM290300 03006KT 4SM BR VCSH OVC006=

USA.gov is the U.S. government's official web portal to all federal, state and local government web resources and services.